Terminal Aerodrome Forecast
Issued by NWS Tiyan, Guam

Home | Current Version | Previous Version | Text Only | Print | Product List | Glossary On
Versions: 1 2 3 4 5 6 7 8 9 10 11 12 13 14 15 16 17 18 19 20 21 22 23 24 25 26 27 28 29 30 31 32 33 34 35 36 37
000
FTPQ31 PGUM 181900 AAA
TAFPQ
TAF AMD
PGUM 181908Z 1819/1924 01006KT P6SM VCTS SCT015CB BKN060
      TEMPO 1819/1821 VRB13G25KT 2SM +TSRA BKN010CB BKN020 OVC100
     FM182100 01006KT P6SM VCSH FEW015 SCT030 BKN060
      TEMPO 1821/1823 5SM SHRA SCT015 BKN025 BKN060=

USA.gov is the U.S. government's official web portal to all federal, state and local government web resources and services.